• Join FlightAware (Why Join?)
  • Login
  • US Flag GB Flag 
02:58 EDT


 

Airport Tracker/Info


-or-


 

Live Flight TrackerFlight Track Log ✈ DAL110 ✈ 13-May-2013 ✈ SAEZ / EZE - KATL

Flight Track Log - Related Links

Times and Time Zones

All times are in EDT time to prevent confusion due to time zone crossing. See the DAL110 flight status page for this flight to view local times or setup timezone preferences in your user account.

Time Position Orientation Groundspeed Altitude Reporting Facility
EDT Latitude Longitude Course Direction KTS MPH feet Rate Location/Type
19:33 -34.7115 -58.5811 339° North  Level FlightAware Approximate
19:34 -34.5994 -58.6333 339° North  Level FlightAware Approximate
19:35 -34.4874 -58.6853 339° North  Level FlightAware Approximate
19:36 -34.3754 -58.7371 339° North  Level FlightAware Approximate
19:37 -34.2633 -58.7889 339° North  Level FlightAware Approximate
19:38 -34.1511 -58.8405 339° North  Level FlightAware Approximate
19:39 -34.0390 -58.8919 339° North  Level FlightAware Approximate
19:40 -33.9269 -58.9433 339° North  Level FlightAware Approximate
19:41 -33.8147 -58.9945 339° North  Level FlightAware Approximate
19:42 -33.7025 -59.0455 339° North  Level FlightAware Approximate
19:43 -33.5903 -59.0964 339° North  Level FlightAware Approximate
19:44 -33.4781 -59.1472 339° North  Level FlightAware Approximate
19:45 -33.3647 -59.1984 339° North  Level FlightAware Approximate
19:46 -33.2487 -59.2506 339° North  Level FlightAware Approximate
19:47 -33.1356 -59.3022 339° North  Level FlightAware Approximate
19:48 -33.0224 -59.3536 339° North  Level FlightAware Approximate
19:49 -32.9091 -59.4050 339° North  Level FlightAware Approximate
19:50 -32.7959 -59.4562 339° North  Level FlightAware Approximate
19:51 -32.6827 -59.5073 339° North  Level FlightAware Approximate
19:52 -32.5694 -59.5582 339° North  Level FlightAware Approximate
19:53 -32.4561 -59.6091 339° North  Level FlightAware Approximate
19:54 -32.3427 -59.6597 339° North  Level FlightAware Approximate
19:55 -32.2294 -59.7103 339° North  Level FlightAware Approximate
19:56 -32.1160 -59.7607 339° North  Level FlightAware Approximate
19:57 -32.0026 -59.8111 339° North  Level FlightAware Approximate
19:58 -31.8892 -59.8613 339° North  Level FlightAware Approximate
19:59 -31.7758 -59.9113 339° North  Level FlightAware Approximate
20:00 -31.6623 -59.9613 339° North  Level FlightAware Approximate
20:01 -31.5489 -60.0111 339° North  Level FlightAware Approximate
20:02 -31.4354 -60.0608 340° North  Level FlightAware Approximate
20:03 -31.3219 -60.1104 340° North  Level FlightAware Approximate
20:04 -31.2084 -60.1598 340° North  Level FlightAware Approximate
20:05 -31.0948 -60.2092 340° North  Level FlightAware Approximate
20:06 -30.9813 -60.2584 340° North  Level FlightAware Approximate
20:07 -30.8677 -60.3075 340° North  Level FlightAware Approximate
20:08 -30.7541 -60.3565 340° North  Level FlightAware Approximate
20:09 -30.6405 -60.4054 340° North  Level FlightAware Approximate
20:10 -30.5268 -60.4541 340° North  Level FlightAware Approximate
20:11 -30.4132 -60.5028 340° North  Level FlightAware Approximate
20:12 -30.2995 -60.5513 340° North  Level FlightAware Approximate
20:13 -30.1853 -60.6000 340° North  Level FlightAware Approximate
20:14 -30.0710 -60.6485 340° North  Level FlightAware Approximate
20:15 -29.9567 -60.6970 340° North  Level FlightAware Approximate
20:16 -29.8424 -60.7453 340° North  Level FlightAware Approximate
20:17 -29.7281 -60.7935 340° North  Level FlightAware Approximate
20:18 -29.6137 -60.8416 340° North  Level FlightAware Approximate
20:19 -29.4994 -60.8896 340° North  Level FlightAware Approximate
20:20 -29.3850 -60.9375 340° North  Level FlightAware Approximate
20:21 -29.2706 -60.9853 340° North  Level FlightAware Approximate
20:22 -29.1562 -61.0330 340° North  Level FlightAware Approximate
20:23 -29.0418 -61.0806 340° North  Level FlightAware Approximate
20:24 -28.9273 -61.1280 340° North  Level FlightAware Approximate
20:25 -28.8129 -61.1754 340° North  Level FlightAware Approximate
20:26 -28.6984 -61.2226 340° North  Level FlightAware Approximate
20:27 -28.5839 -61.2698 340° North  Level FlightAware Approximate
20:28 -28.4694 -61.3168 340° North  Level FlightAware Approximate
20:29 -28.3549 -61.3638 340° North  Level FlightAware Approximate
20:30 -28.2403 -61.4106 340° North  Level FlightAware Approximate
20:31 -28.1258 -61.4574 340° North  Level FlightAware Approximate
20:32 -28.0112 -61.5040 340° North  Level FlightAware Approximate
20:33 -27.8966 -61.5506 340° North  Level FlightAware Approximate
20:34 -27.7820 -61.5970 340° North  Level FlightAware Approximate
20:35 -27.6674 -61.6434 340° North  Level FlightAware Approximate
20:36 -27.5527 -61.6896 340° North  Level FlightAware Approximate
20:37 -27.4381 -61.7358 340° North  Level FlightAware Approximate
20:38 -27.3234 -61.7819 340° North  Level FlightAware Approximate
20:39 -27.2087 -61.8278 340° North  Level FlightAware Approximate
20:40 -27.0940 -61.8737 340° North  Level FlightAware Approximate
20:41 -26.9793 -61.9195 340° North  Level FlightAware Approximate
20:42 -26.8646 -61.9652 340° North  Level FlightAware Approximate
20:43 -26.7499 -62.0107 340° North  Level FlightAware Approximate
20:44 -26.6351 -62.0563 340° North  Level FlightAware Approximate
20:45 -26.5204 -62.1017 341° North  Level FlightAware Approximate
20:46 -26.4056 -62.1470 341° North  Level FlightAware Approximate
20:47 -26.2908 -62.1922 341° North  Level FlightAware Approximate
20:48 -26.1760 -62.2374 341° North  Level FlightAware Approximate
20:49 -26.0611 -62.2824 341° North  Level FlightAware Approximate
20:50 -25.9463 -62.3274 341° North  Level FlightAware Approximate
20:51 -25.8314 -62.3722 341° North  Level FlightAware Approximate
20:52 -25.7166 -62.4170 341° North  Level FlightAware Approximate
20:53 -25.6017 -62.4617 341° North  Level FlightAware Approximate
20:54 -25.4868 -62.5063 341° North  Level FlightAware Approximate
20:55 -25.3719 -62.5509 341° North  Level FlightAware Approximate
20:56 -25.2570 -62.5953 341° North  Level FlightAware Approximate
20:57 -25.1420 -62.6397 341° North  Level FlightAware Approximate
20:58 -25.0271 -62.6839 341° North  Level FlightAware Approximate
20:59 -24.9121 -62.7281 341° North  Level FlightAware Approximate
21:00 -24.7972 -62.7722 341° North  Level FlightAware Approximate
21:01 -24.6822 -62.8163 341° North  Level FlightAware Approximate
21:02 -24.5672 -62.8602 341° North  Level FlightAware Approximate
21:03 -24.4522 -62.9041 341° North  Level FlightAware Approximate
21:04 -24.3372 -62.9479 341° North  Level FlightAware Approximate
21:05 -24.2221 -62.9916 341° North  Level FlightAware Approximate
21:06 -24.1071 -63.0352 341° North  Level FlightAware Approximate
21:07 -23.9920 -63.0788 341° North  Level FlightAware Approximate
21:08 -23.8769 -63.1222 341° North  Level FlightAware Approximate
21:09 -23.7618 -63.1656 341° North  Level FlightAware Approximate
21:10 -23.6467 -63.2090 341° North  Level FlightAware Approximate
21:11 -23.5316 -63.2522 341° North  Level FlightAware Approximate
21:12 -23.4165 -63.2954 341° North  Level FlightAware Approximate
21:13 -23.3014 -63.3385 341° North  Level FlightAware Approximate
21:14 -23.1862 -63.3815 341° North  Level FlightAware Approximate
21:15 -23.0711 -63.4244 341° North  Level FlightAware Approximate
21:16 -22.9559 -63.4673 341° North  Level FlightAware Approximate
21:17 -22.8407 -63.5101 341° North  Level FlightAware Approximate
21:18 -22.7255 -63.5528 341° North  Level FlightAware Approximate
21:19 -22.6103 -63.5955 341° North  Level FlightAware Approximate
21:20 -22.4951 -63.6381 341° North  Level FlightAware Approximate
21:21 -22.3799 -63.6806 341° North  Level FlightAware Approximate
21:22 -22.2647 -63.7230 341° North  Level FlightAware Approximate
21:23 -22.1494 -63.7654 341° North  Level FlightAware Approximate
21:24 -22.0343 -63.8076 341° North  Level FlightAware Approximate
21:25 -21.9193 -63.8498 341° North  Level FlightAware Approximate
21:26 -21.8042 -63.8919 341° North  Level FlightAware Approximate
21:27 -21.6891 -63.9339 341° North  Level FlightAware Approximate
21:28 -21.5739 -63.9758 341° North  Level FlightAware Approximate
21:29 -21.4588 -64.0177 341° North  Level FlightAware Approximate
21:30 -21.3437 -64.0596 341° North  Level FlightAware Approximate
21:31 -21.2286 -64.1013 341° North  Level FlightAware Approximate
21:32 -21.1134 -64.1430 341° North  Level FlightAware Approximate
21:33 -20.9982 -64.1847 341° North  Level FlightAware Approximate
21:34 -20.8831 -64.2262 341° North  Level FlightAware Approximate
21:35 -20.7679 -64.2677 341° North  Level FlightAware Approximate
21:36 -20.6527 -64.3092 341° North  Level FlightAware Approximate
21:37 -20.5375 -64.3505 341° North  Level FlightAware Approximate
21:38 -20.4223 -64.3919 341° North  Level FlightAware Approximate
21:39 -20.3071 -64.4331 341° North  Level FlightAware Approximate
21:40 -20.1919 -64.4743 341° North  Level FlightAware Approximate
21:41 -20.0766 -64.5154 341° North  Level FlightAware Approximate
21:42 -19.9614 -64.5565 341° North  Level FlightAware Approximate
21:43 -19.8461 -64.5975 341° North  Level FlightAware Approximate
21:44 -19.7308 -64.6385 342° North  Level FlightAware Approximate
21:45 -19.6155 -64.6794 342° North  Level FlightAware Approximate
21:46 -19.5003 -64.7202 342° North  Level FlightAware Approximate
21:47 -19.3850 -64.7610 342° North  Level FlightAware Approximate
21:48 -19.2696 -64.8017 342° North  Level FlightAware Approximate
21:49 -19.1543 -64.8423 342° North  Level FlightAware Approximate
21:50 -19.0390 -64.8829 342° North  Level FlightAware Approximate
21:51 -18.9237 -64.9235 342° North  Level FlightAware Approximate
21:52 -18.8083 -64.9640 342° North  Level FlightAware Approximate
21:53 -18.6930 -65.0044 342° North  Level FlightAware Approximate
21:54 -18.5776 -65.0448 342° North  Level FlightAware Approximate
21:55 -18.4623 -65.0851 342° North  Level FlightAware Approximate
21:56 -18.3469 -65.1254 342° North  Level FlightAware Approximate
21:57 -18.2315 -65.1656 342° North  Level FlightAware Approximate
21:58 -18.1161 -65.2058 342° North  Level FlightAware Approximate
21:59 -18.0007 -65.2459 342° North  Level FlightAware Approximate
22:00 -17.8853 -65.2860 342° North  Level FlightAware Approximate
22:01 -17.7699 -65.3260 342° North  Level FlightAware Approximate
22:02 -17.6544 -65.3659 342° North  Level FlightAware Approximate
22:03 -17.5390 -65.4059 342° North  Level FlightAware Approximate
22:04 -17.4236 -65.4457 342° North  Level FlightAware Approximate
22:05 -17.3081 -65.4855 342° North  Level FlightAware Approximate
22:06 -17.1927 -65.5253 342° North  Level FlightAware Approximate
22:07 -17.0772 -65.5650 342° North  Level FlightAware Approximate
22:08 -16.9617 -65.6046 342° North  Level FlightAware Approximate
22:09 -16.8463 -65.6442 342° North  Level FlightAware Approximate
22:10 -16.7308 -65.6838 342° North  Level FlightAware Approximate
22:11 -16.6153 -65.7233 342° North  Level FlightAware Approximate
22:12 -16.4998 -65.7628 342° North  Level FlightAware Approximate
22:13 -16.3843 -65.8022 342° North  Level FlightAware Approximate
22:14 -16.2687 -65.8416 342° North  Level FlightAware Approximate
22:15 -16.1532 -65.8809 342° North  Level FlightAware Approximate
22:16 -16.0377 -65.9202 342° North  Level FlightAware Approximate
22:17 -15.9221 -65.9594 342° North  Level FlightAware Approximate
22:18 -15.8066 -65.9986 342° North  Level FlightAware Approximate
22:19 -15.6910 -66.0377 342° North  Level FlightAware Approximate
22:20 -15.5755 -66.0768 342° North  Level FlightAware Approximate
22:21 -15.4599 -66.1159 342° North  Level FlightAware Approximate
22:22 -15.3443 -66.1549 342° North  Level FlightAware Approximate
22:23 -15.2288 -66.1938 342° North  Level FlightAware Approximate
22:24 -15.1132 -66.2328 342° North  Level FlightAware Approximate
22:25 -14.9976 -66.2717 342° North  Level FlightAware Approximate
22:26 -14.8820 -66.3105 342° North  Level FlightAware Approximate
22:27 -14.7664 -66.3493 342° North  Level FlightAware Approximate
22:28 -14.6508 -66.3880 342° North  Level FlightAware Approximate
22:29 -14.5351 -66.4268 342° North  Level FlightAware Approximate
22:30 -14.4195 -66.4654 342° North  Level FlightAware Approximate
22:31 -14.3039 -66.5041 342° North  Level FlightAware Approximate
22:32 -14.1882 -66.5427 342° North  Level FlightAware Approximate
22:33 -14.0726 -66.5813 342° North  Level FlightAware Approximate
22:34 -13.9569 -66.6198 342° North  Level FlightAware Approximate
22:35 -13.8413 -66.6582 342° North  Level FlightAware Approximate
22:36 -13.7256 -66.6967 342° North  Level FlightAware Approximate
22:37 -13.6099 -66.7351 342° North  Level FlightAware Approximate
22:38 -13.4943 -66.7735 342° North  Level FlightAware Approximate
22:39 -13.3786 -66.8118 342° North  Level FlightAware Approximate
22:40 -13.2629 -66.8501 342° North  Level FlightAware Approximate
22:41 -13.1472 -66.8883 342° North  Level FlightAware Approximate
22:42 -13.0315 -66.9266 342° North  Level FlightAware Approximate
22:43 -12.9158 -66.9647 342° North  Level FlightAware Approximate
22:44 -12.8003 -67.0028 342° North  Level FlightAware Approximate
22:45 -12.6848 -67.0409 342° North  Level FlightAware Approximate
22:46 -12.5692 -67.0789 342° North  Level FlightAware Approximate
22:47 -12.4537 -67.1169 342° North  Level FlightAware Approximate
22:48 -12.3382 -67.1548 342° North  Level FlightAware Approximate
22:49 -12.2226 -67.1927 342° North  Level FlightAware Approximate
22:50 -12.1070 -67.2306 342° North  Level FlightAware Approximate
22:51 -11.9915 -67.2684 342° North  Level FlightAware Approximate
22:52 -11.8759 -67.3063 342° North  Level FlightAware Approximate
22:53 -11.7604 -67.3440 342° North  Level FlightAware Approximate
22:54 -11.6448 -67.3818 342° North  Level FlightAware Approximate
22:55 -11.5292 -67.4195 342° North  Level FlightAware Approximate
22:56 -11.4136 -67.4572 342° North  Level FlightAware Approximate
22:57 -11.2980 -67.4949 342° North  Level FlightAware Approximate
22:58 -11.1825 -67.5325 342° North  Level FlightAware Approximate
22:59 -11.0668 -67.5701 342° North  Level FlightAware Approximate
23:00 -10.9513 -67.6077 342° North  Level FlightAware Approximate
23:01 -10.8357 -67.6452 342° North  Level FlightAware Approximate
23:02 -10.7200 -67.6827 342° North  Level FlightAware Approximate
23:03 -10.6044 -67.7202 342° North  Level FlightAware Approximate
23:04 -10.4888 -67.7577 342° North  Level FlightAware Approximate
23:05 -10.3732 -67.7951 342° North  Level FlightAware Approximate
23:06 -10.2576 -67.8325 342° North  Level FlightAware Approximate
23:07 -10.1419 -67.8699 342° North  Level FlightAware Approximate
23:08 -10.0263 -67.9072 342° North  Level FlightAware Approximate
23:09 -9.9107 -67.9445 342° North  Level FlightAware Approximate
23:10 -9.7950 -67.9818 342° North  Level FlightAware Approximate
23:11 -9.6794 -68.0191 342° North  Level FlightAware Approximate
23:12 -9.5637 -68.0563 342° North  Level FlightAware Approximate
23:13 -9.4480 -68.0935 342° North  Level FlightAware Approximate
23:14 -9.3324 -68.1307 342° North  Level FlightAware Approximate
23:15 -9.2167 -68.1679 342° North  Level FlightAware Approximate
23:16 -9.1011 -68.2050 342° North  Level FlightAware Approximate
23:17 -8.9854 -68.2421 342° North  Level FlightAware Approximate
23:18 -8.8697 -68.2792 342° North  Level FlightAware Approximate
23:19 -8.7540 -68.3163 342° North  Level FlightAware Approximate
23:20 -8.6384 -68.3533 342° North  Level FlightAware Approximate
23:21 -8.5227 -68.3904 342° North  Level FlightAware Approximate
23:22 -8.4070 -68.4274 342° North  Level FlightAware Approximate
23:23 -8.2913 -68.4643 342° North  Level FlightAware Approximate
23:24 -8.1756 -68.5013 342° North  Level FlightAware Approximate
23:25 -8.0599 -68.5382 342° North  Level FlightAware Approximate
23:26 -7.9442 -68.5751 342° North  Level FlightAware Approximate
23:27 -7.8285 -68.6120 342° North  Level FlightAware Approximate
23:28 -7.7128 -68.6489 342° North  Level FlightAware Approximate
23:29 -7.5971 -68.6858 342° North  Level FlightAware Approximate
23:30 -7.4813 -68.7226 342° North  Level FlightAware Approximate
23:31 -7.3656 -68.7594 342° North  Level FlightAware Approximate
23:32 -7.2499 -68.7962 342° North  Level FlightAware Approximate
23:33 -7.1342 -68.8330 342° North  Level FlightAware Approximate
23:34 -7.0184 -68.8697 343° North  Level FlightAware Approximate
23:35 -6.9027 -68.9065 343° North  Level FlightAware Approximate
23:36 -6.7870 -68.9432 343° North  Level FlightAware Approximate
23:37 -6.6712 -68.9799 343° North  Level FlightAware Approximate
23:38 -6.5555 -69.0166 343° North  Level FlightAware Approximate
23:39 -6.4398 -69.0532 343° North  Level FlightAware Approximate
23:40 -6.3240 -69.0899 343° North  Level FlightAware Approximate
23:41 -6.2083 -69.1265 343° North  Level FlightAware Approximate
23:42 -6.0925 -69.1631 343° North  Level FlightAware Approximate
23:43 -5.9768 -69.1998 343° North  Level FlightAware Approximate
23:44 -5.8610 -69.2363 343° North  Level FlightAware Approximate
23:45 -5.7453 -69.2729 343° North  Level FlightAware Approximate
23:46 -5.6295 -69.3095 343° North  Level FlightAware Approximate
23:47 -5.5138 -69.3460 343° North  Level FlightAware Approximate
23:48 -5.3980 -69.3825 343° North  Level FlightAware Approximate
23:49 -5.2822 -69.4191 343° North  Level FlightAware Approximate
23:50 -5.1665 -69.4556 343° North  Level FlightAware Approximate
23:51 -5.0507 -69.4921 343° North  Level FlightAware Approximate
23:52 -4.9349 -69.5285 343° North  Level FlightAware Approximate
23:53 -4.8191 -69.5650 343° North  Level FlightAware Approximate
23:54 -4.7034 -69.6014 343° North  Level FlightAware Approximate
23:55 -4.5876 -69.6379 343° North  Level FlightAware Approximate
23:56 -4.4718 -69.6743 343° North  Level FlightAware Approximate
23:57 -4.3560 -69.7107 343° North  Level FlightAware Approximate
23:58 -4.2403 -69.7471 343° North  Level FlightAware Approximate
23:59 -4.1251 -69.7833 343° North  Level FlightAware Approximate
00:00 -4.0098 -69.8195 343° North  Level FlightAware Approximate
00:01 -3.8946 -69.8557 343° North  Level FlightAware Approximate
00:02 -3.7794 -69.8919 343° North  Level FlightAware Approximate
00:03 -3.6642 -69.9281 343° North  Level FlightAware Approximate
00:04 -3.5489 -69.9642 343° North  Level FlightAware Approximate
00:05 -3.4337 -70.0004 343° North  Level FlightAware Approximate
00:06 -3.3185 -70.0365 343° North  Level FlightAware Approximate
00:07 -3.2033 -70.0727 343° North  Level FlightAware Approximate
00:08 -3.0880 -70.1088 343° North  Level FlightAware Approximate
00:09 -2.9728 -70.1449 343° North  Level FlightAware Approximate
00:10 -2.8576 -70.1810 343° North  Level FlightAware Approximate
00:11 -2.7424 -70.2171 343° North  Level FlightAware Approximate
00:12 -2.6271 -70.2532 343° North  Level FlightAware Approximate
00:13 -2.5119 -70.2893 343° North  Level FlightAware Approximate
00:14 -2.3967 -70.3254 343° North  Level FlightAware Approximate
00:15 -2.2814 -70.3615 343° North  Level FlightAware Approximate
00:16 -2.1662 -70.3976 343° North  Level FlightAware Approximate
00:17 -2.0510 -70.4336 343° North  Level FlightAware Approximate
00:18 -1.9357 -70.4697 343° North  Level FlightAware Approximate
00:19 -1.8205 -70.5058 343° North  Level FlightAware Approximate
00:20 -1.7052 -70.5418 343° North  Level FlightAware Approximate
00:21 -1.5900 -70.5779 343° North  Level FlightAware Approximate
00:22 -1.4748 -70.6139 343° North  Level FlightAware Approximate
00:23 -1.3595 -70.6499 343° North  Level FlightAware Approximate
00:24 -1.2443 -70.6860 343° North  Level FlightAware Approximate
00:25 -1.1290 -70.7220 343° North  Level FlightAware Approximate
00:26 -1.0138 -70.7581 343° North  Level FlightAware Approximate
00:27 -0.8986 -70.7941 343° North  Level FlightAware Approximate
00:28 -0.7833 -70.8301 343° North  Level FlightAware Approximate
00:29 -0.6681 -70.8661 343° North  Level FlightAware Approximate
00:30 -0.5528 -70.9022 343° North  Level FlightAware Approximate
00:31 -0.4376 -70.9382 343° North  Level FlightAware Approximate
00:32 -0.3224 -70.9742 343° North  Level FlightAware Approximate
00:33 -0.2071 -71.0102 343° North  Level FlightAware Approximate
00:34 -0.0919 -71.0462 343° North  Level FlightAware Approximate
00:35 0.0234 -71.0823 343° North  Level FlightAware Approximate
00:36 0.1386 -71.1183 343° North  Level FlightAware Approximate
00:37 0.2538 -71.1543 343° North  Level FlightAware Approximate
00:38 0.3691 -71.1903 343° North  Level FlightAware Approximate
00:39 0.4843 -71.2263 343° North  Level FlightAware Approximate
00:40 0.5996 -71.2624 343° North  Level FlightAware Approximate
00:41 0.7148 -71.2984 343° North  Level FlightAware Approximate
00:42 0.8300 -71.3344 343° North  Level FlightAware Approximate
00:43 0.9453 -71.3705 343° North  Level FlightAware Approximate
00:44 1.0605 -71.4065 343° North  Level FlightAware Approximate
00:45 1.1758 -71.4425 343° North  Level FlightAware Approximate
00:46 1.2910 -71.4786 343° North  Level FlightAware Approximate
00:47 1.4062 -71.5146 343° North  Level FlightAware Approximate
00:48 1.5215 -71.5506 343° North  Level FlightAware Approximate
00:49 1.6367 -71.5867 343° North  Level FlightAware Approximate
00:50 1.7520 -71.6227 343° North  Level FlightAware Approximate
00:51 1.8672 -71.6588 343° North  Level FlightAware Approximate
00:52 1.9824 -71.6949 343° North  Level FlightAware Approximate
00:53 2.0977 -71.7309 343° North  Level FlightAware Approximate
00:54 2.2129 -71.7670 343° North  Level FlightAware Approximate
00:55 2.3282 -71.8031 343° North  Level FlightAware Approximate
00:56 2.4434 -71.8392 343° North  Level FlightAware Approximate
00:57 2.5586 -71.8753 343° North  Level FlightAware Approximate
00:58 2.6738 -71.9113 343° North  Level FlightAware Approximate
00:59 2.7891 -71.9474 343° North  Level FlightAware Approximate
01:00 2.9043 -71.9836 343° North  Level FlightAware Approximate
01:01 3.0195 -72.0197 343° North  Level FlightAware Approximate
01:02 3.1348 -72.0558 343° North  Level FlightAware Approximate
01:03 3.2500 -72.0919 343° North  Level FlightAware Approximate
01:04 3.3652 -72.1281 343° North  Level FlightAware Approximate
01:05 3.4804 -72.1642 343° North  Level FlightAware Approximate
01:06 3.5956 -72.2004 343° North  Level FlightAware Approximate
01:07 3.7109 -72.2365 343° North  Level FlightAware Approximate
01:08 3.8261 -72.2727 343° North  Level FlightAware Approximate
01:09 3.9413 -72.3089 343° North  Level FlightAware Approximate
01:10 4.0565 -72.3451 343° North  Level FlightAware Approximate
01:11 4.1717 -72.3813 343° North  Level FlightAware Approximate
01:12 4.2870 -72.4175 343° North  Level FlightAware Approximate
01:13 4.4022 -72.4538 343° North  Level FlightAware Approximate
01:14 4.5174 -72.4900 343° North  Level FlightAware Approximate
01:15 4.6326 -72.5263 343° North  Level FlightAware Approximate
01:16 4.7478 -72.5625 343° North  Level FlightAware Approximate
01:17 4.8630 -72.5988 343° North  Level FlightAware Approximate
01:18 4.9782 -72.6351 343° North  Level FlightAware Approximate
01:19 5.0934 -72.6714 343° North  Level FlightAware Approximate
01:20 5.2086 -72.7077 343° North  Level FlightAware Approximate
01:21 5.3238 -72.7440 343° North  Level FlightAware Approximate
01:22 5.4390 -72.7804 343° North  Level FlightAware Approximate
01:23 5.5542 -72.8167 343° North  Level FlightAware Approximate
01:24 5.6694 -72.8531 343° North  Level FlightAware Approximate
01:25 5.7846 -72.8895 343° North  Level FlightAware Approximate
01:26 5.8997 -72.9259 343° North  Level FlightAware Approximate
01:27 6.0149 -72.9623 343° North  Level FlightAware Approximate
01:28 6.1301 -72.9987 343° North  Level FlightAware Approximate
01:29 6.2453 -73.0352 343° North  Level FlightAware Approximate
01:30 6.3604 -73.0716 343° North  Level FlightAware Approximate
01:31 6.4756 -73.1081 343° North  Level FlightAware Approximate
01:32 6.5908 -73.1446 343° North  Level FlightAware Approximate
01:33 6.7060 -73.1811 343° North  Level FlightAware Approximate
01:34 6.8211 -73.2176 343° North  Level FlightAware Approximate
01:35 6.9363 -73.2542 343° North  Level FlightAware Approximate
01:36 7.0514 -73.2907 343° North  Level FlightAware Approximate
01:37 7.1666 -73.3273 343° North  Level FlightAware Approximate
01:38 7.2818 -73.3639 343° North  Level FlightAware Approximate
01:39 7.3969 -73.4005 342° North  Level FlightAware Approximate
01:40 7.5121 -73.4372 343° North  Level FlightAware Approximate
01:41 7.6273 -73.4737 343° North  Level FlightAware Approximate
01:42 7.7425 -73.5102 343° North  Level FlightAware Approximate
01:43 7.8576 -73.5468 343° North  Level FlightAware Approximate
01:44 7.9728 -73.5834 343° North  Level FlightAware Approximate
01:45 8.0880 -73.6200 343° North  Level FlightAware Approximate
01:46 8.2031 -73.6567 343° North  Level FlightAware Approximate
01:47 8.3183 -73.6933 343° North  Level FlightAware Approximate
01:48 8.4335 -73.7300 343° North  Level FlightAware Approximate
01:49 8.5486 -73.7667 343° North  Level FlightAware Approximate
01:50 8.6638 -73.8034 343° North  Level FlightAware Approximate
01:51 8.7789 -73.8402 342° North  Level FlightAware Approximate
01:52 8.8941 -73.8770 342° North  Level FlightAware Approximate
01:53 9.0092 -73.9137 342° North  Level FlightAware Approximate
01:54 9.1243 -73.9506 342° North  Level FlightAware Approximate
01:55 9.2395 -73.9874 342° North  Level FlightAware Approximate
01:56 9.3546 -74.0243 342° North  Level FlightAware Approximate
01:57 9.4697 -74.0612 342° North  Level FlightAware Approximate
01:58 9.5849 -74.0981 342° North  Level FlightAware Approximate
01:59 9.7000 -74.1350 342° North  Level FlightAware Approximate
02:00 9.8151 -74.1720 342° North  Level FlightAware Approximate
02:01 9.9302 -74.2090 342° North  Level FlightAware Approximate
02:02 10.0453 -74.2460 342° North  Level FlightAware Approximate
02:03 10.1604 -74.2830 342° North  Level FlightAware Approximate
02:04 10.2755 -74.3201 342° North  Level FlightAware Approximate
02:05 10.3907 -74.3570 343° North  Level FlightAware Approximate
02:06 10.5059 -74.3938 343° North  Level FlightAware Approximate
02:07 10.6210 -74.4306 343° North  Level FlightAware Approximate
02:08 10.7362 -74.4675 343° North  Level FlightAware Approximate
02:09 10.8514 -74.5044 343° North  Level FlightAware Approximate
02:10 10.9666 -74.5413 343° North  Level FlightAware Approximate
02:11 11.0817 -74.5783 343° North  Level FlightAware Approximate
02:12 11.1969 -74.6152 343° North  Level FlightAware Approximate
02:13 11.3120 -74.6523 343° North  Level FlightAware Approximate
02:14 11.4272 -74.6893 342° North  Level FlightAware Approximate
02:15 11.5423 -74.7264 342° North  Level FlightAware Approximate
02:16 11.6579 -74.7636 342° North  Level FlightAware Approximate
02:17 11.7734 -74.8008 342° North  Level FlightAware Approximate
02:18 11.8889 -74.8381 342° North  Level FlightAware Approximate
02:19 12.0044 -74.8755 342° North  Level FlightAware Approximate
02:20 12.1195 -74.9127 342° North  Level FlightAware Approximate
02:21 12.2346 -74.9501 342° North  Level FlightAware Approximate
02:22 12.3496 -74.9878 342° North  Level FlightAware Approximate
02:23 12.4646 -75.0255 342° North  Level FlightAware Approximate
02:24 12.5795 -75.0633 342° North  Level FlightAware Approximate
02:25 12.6945 -75.1010 342° North  Level FlightAware Approximate
02:26 12.8095 -75.1388 342° North  Level FlightAware Approximate
02:27 12.9245 -75.1767 342° North  Level FlightAware Approximate
02:28 13.0394 -75.2146 342° North  Level FlightAware Approximate
02:29 13.1544 -75.2525 342° North  Level FlightAware Approximate
02:30 13.2693 -75.2905 342° North  Level FlightAware Approximate
02:31 13.3843 -75.3284 342° North  Level FlightAware Approximate
02:32 13.4992 -75.3665 342° North  Level FlightAware Approximate
02:33 13.6141 -75.4045 342° North  Level FlightAware Approximate
02:34 13.7291 -75.4426 342° North  Level FlightAware Approximate
02:35 13.8440 -75.4808 342° North  Level FlightAware Approximate
02:36 13.9589 -75.5189 342° North  Level FlightAware Approximate
02:37 14.0738 -75.5572 342° North  Level FlightAware Approximate
02:38 14.1887 -75.5954 342° North  Level FlightAware Approximate
02:39 14.3036 -75.6337 342° North  Level FlightAware Approximate
02:40 14.4185 -75.6720 342° North  Level FlightAware Approximate
02:41 14.5334 -75.7104 342° North  Level FlightAware Approximate
02:42 14.6483 -75.7488 342° North  Level FlightAware Approximate
02:43 14.7631 -75.7872 342° North  Level FlightAware Approximate
02:44 14.8780 -75.8257 342° North  Level FlightAware Approximate
02:45 14.9929 -75.8643 342° North  Level FlightAware Approximate
02:46 15.1077 -75.9028 342° North  Level FlightAware Approximate
02:47 15.2226 -75.9413 342° North  Level FlightAware Approximate
02:48 15.3375 -75.9799 342° North  Level FlightAware Approximate
02:49 15.4523 -76.0185 342° North  Level FlightAware Approximate
02:50 15.5672 -76.0572 342° North  Level FlightAware Approximate
02:51 15.6820 -76.0959 342° North  Level FlightAware Approximate
02:52 15.7968 -76.1347 342° North  Level FlightAware Approximate
02:53 15.9117 -76.1735 342° North  Level FlightAware Approximate
02:54 16.0265 -76.2123 342° North  Level FlightAware Approximate
02:55 16.1413 -76.2512 342° North  Level FlightAware Approximate
02:56 16.2561 -76.2902 342° North  Level FlightAware Approximate
02:57 16.3709 -76.3291 342° North  Level FlightAware Approximate
02:58 16.4857 -76.3682 342° North  Level FlightAware Approximate
02:59 16.6005 -76.4072 342° North  Level FlightAware Approximate
03:00 16.7153 -76.4464 342° North  Level FlightAware Approximate
03:01 16.8300 -76.4855 342° North  Level FlightAware Approximate
03:02 16.9448 -76.5247 342° North  Level FlightAware Approximate
03:03 17.0595 -76.5640 342° North  Level FlightAware Approximate
03:04 17.1743 -76.6033 342° North  Level FlightAware Approximate
03:05 17.2890 -76.6427 342° North  Level FlightAware Approximate
03:06 17.4038 -76.6821 342° North  Level FlightAware Approximate
03:07 17.5185 -76.7215 342° North  Level FlightAware Approximate
03:08 17.6332 -76.7611 342° North  Level FlightAware Approximate
03:09 17.7479 -76.8006 342° North  Level FlightAware Approximate
03:10 17.8626 -76.8402 342° North  Level FlightAware Approximate
03:11 17.9773 -76.8799 342° North  Level FlightAware Approximate
03:12 18.0920 -76.9196 342° North  Level FlightAware Approximate
03:13 18.2067 -76.9594 342° North  Level FlightAware Approximate
03:14 18.3214 -76.9992 342° North  Level FlightAware Approximate
03:15 18.4360 -77.0390 342° North  Level FlightAware Approximate
03:16 18.5507 -77.0790 342° North  Level FlightAware Approximate
03:17 18.6653 -77.1189 342° North  Level FlightAware Approximate
03:18 18.7799 -77.1590 342° North  Level FlightAware Approximate
03:19 18.8946 -77.1991 342° North  Level FlightAware Approximate
03:20 19.0092 -77.2392 342° North  Level FlightAware Approximate
03:21 19.1238 -77.2794 342° North  Level FlightAware Approximate
03:22 19.2384 -77.3196 342° North  Level FlightAware Approximate
03:23 19.3530 -77.3600 342° North  Level FlightAware Approximate
03:24 19.4676 -77.4003 341° North  Level FlightAware Approximate
03:25 19.5814 -77.4429 341° North  Level FlightAware Approximate
03:26 19.6953 -77.4856 341° North  Level FlightAware Approximate
03:27 19.8092 -77.5283 341° North  Level FlightAware Approximate
03:28 19.9230 -77.5710 341° North  Level FlightAware Approximate
03:29 20.0371 -77.6131 342° North  Level FlightAware Approximate
03:30 20.1517 -77.6537 342° North  Level FlightAware Approximate
03:31 20.2662 -77.6943 342° North  Level FlightAware Approximate
03:32 20.3808 -77.7349 342° North  Level FlightAware Approximate
03:33 20.4953 -77.7757 342° North  Level FlightAware Approximate
03:34 20.6099 -77.8165 342° North  Level FlightAware Approximate
03:35 20.7244 -77.8573 342° North  Level FlightAware Approximate
03:36 20.8389 -77.8983 342° North  Level FlightAware Approximate
03:37 20.9534 -77.9392 342° North  Level FlightAware Approximate
03:38 21.0679 -77.9803 342° North  Level FlightAware Approximate
03:39 21.1824 -78.0214 341° North  Level FlightAware Approximate
03:40 21.2969 -78.0626 341° North  Level FlightAware Approximate
03:41 21.4114 -78.1038 341° North  Level FlightAware Approximate
03:42 21.5258 -78.1451 341° North  Level FlightAware Approximate
03:43 21.6403 -78.1864 341° North  Level FlightAware Approximate
03:44 21.7547 -78.2279 341° North  Level FlightAware Approximate
03:45 21.8692 -78.2694 341° North  Level FlightAware Approximate
03:46 21.9836 -78.3109 341° North  Level FlightAware Approximate
03:47 22.0980 -78.3526 341° North  Level FlightAware Approximate
03:48 22.2124 -78.3943 341° North  Level FlightAware Approximate
03:49 22.3268 -78.4360 341° North  Level FlightAware Approximate
03:50 22.4412 -78.4779 341° North  Level FlightAware Approximate
03:51 22.5555 -78.5198 341° North  Level FlightAware Approximate
03:52 22.6699 -78.5617 341° North  Level FlightAware Approximate
03:53 22.7842 -78.6038 341° North  Level FlightAware Approximate
03:53 22.6272 -78.3286 341° North 466 536 38,000  Level Miami Center
03:54 22.8986 -78.6459 341° North  Level FlightAware Approximate
03:54 22.7331 -78.3906 332° Northwest 444 511 38,000  Level Miami Center
03:55 23.0128 -78.6882 341° North  Level FlightAware Approximate
03:55 22.8411 -78.4525 332° Northwest 424 488 38,000  Level Miami Center
03:56 23.1268 -78.7316 341° North  Level FlightAware Approximate
03:56 22.9431 -78.4989 337° Northwest 417 480 38,000  Level Miami Center
03:57 23.2407 -78.7751 341° North  Level FlightAware Approximate
03:57 23.0467 -78.5544 334° Northwest 407 468 38,000  Level Miami Center
03:58 23.3547 -78.8186 341° North  Level FlightAware Approximate
03:58 23.1547 -78.6056 336° Northwest 419 482 38,000  Level Miami Center
03:59 23.4686 -78.8622 341° North  Level FlightAware Approximate
03:59 23.2692 -78.6569 338° Northwest 429 494 38,000  Level Miami Center
04:00 23.3775 -78.6922 343° North 422 486 38,000  Level Miami Center
04:01 23.4875 -78.7369 340° North 416 479 38,000  Level Miami Center
04:03 23.5978 -78.7794 341° North 416 479 38,000  Level Miami Center
04:03 23.7081 -78.8219 341° North 416 479 38,000  Level Miami Center
04:04 23.8181 -78.8667 340° North 416 479 38,000  Level Miami Center
04:05 23.9158 -78.9069 339° North 416 479 38,000  Level Miami Center
04:06 24.0178 -78.9450 341° North 403 464 38,000  Level Miami Center
04:07 24.1258 -78.9856 341° North 410 472 38,000  Level Miami Center
04:09 24.2381 -79.0306 340° North 405 466 38,000  Level Miami Center
04:09 24.3419 -79.0711 340° North 405 466 38,000  Level Miami Center
04:10 24.4478 -79.1142 340° North 410 472 38,000  Level Miami Center
04:11 24.5536 -79.1550 341° North 404 465 38,000  Level Miami Center
04:12 24.6700 -79.1936 343° North 404 465 38,000  Level Miami Center
04:13 24.7761 -79.2369 340° North 404 465 38,000  Level Miami Center
04:14 24.8819 -79.2800 340° North 399 459 38,000  Level Miami Center
04:15 24.9878 -79.3211 341° North 399 459 38,000  Level Miami Center
04:16 25.0958 -79.3622 341° North 405 466 38,000  Level Miami Center
04:18 25.2056 -79.4083 339° North 405 466 38,000  Level Miami Center
04:18 25.3136 -79.4494 341° North 405 466 38,000  Level Miami Center
04:19 25.4214 -79.4933 340° North 411 473 38,000  Level Miami Center
04:20 25.5272 -79.5369 340° North 411 473 38,000  Level Miami Center
04:21 25.6331 -79.5808 340° North 406 467 38,000  Level Miami Center
04:22 25.7428 -79.6247 340° North 411 473 38,000  Level Miami Center
04:23 25.8506 -79.6689 340° North 406 467 38,000  Level Miami Center
04:24 25.9586 -79.7106 341° North 406 467 38,000  Level Miami Center
04:25 26.0642 -79.7525 340° North 406 467 38,000  Level Miami Center
04:26 26.1697 -79.7989 338° Northwest 406 467 38,100 480 Climbing Miami Center
04:27 26.2756 -79.8411 340° North 406 467 39,000 420 Climbing Miami Center
04:29 26.3792 -79.8831 340° North 401 461 39,000  Level Miami Center
04:29 26.4847 -79.9275 339° North 401 461 39,000  Level Miami Center
04:30 26.5861 -79.9697 340° North 401 461 39,000  Level Miami Center
04:31 26.6794 -80.0069 340° North 396 456 39,000  Level Miami Center
04:33 26.8009 -80.0451 344° North  Level FlightAware Approximate
04:37 27.2917 -80.2642 339° North 393 452 39,000  Level Miami Center
04:39 27.3991 -80.3298 332° Northwest  Level Estimated
04:40 27.5901 -80.3739 340° North  Level FlightAware Approximate
04:41 27.7027 -80.4214 339° North  Level FlightAware Approximate
04:41 27.7050 -80.4361 331° Northwest 393 452 39,000  Level Miami Center
04:42 27.8152 -80.4691 339° North  Level FlightAware Approximate
04:42 27.8083 -80.4767 341° North 393 452 39,000  Level Miami Center
04:43 27.9277 -80.5168 339° North  Level FlightAware Approximate
04:43 27.9200 -80.5250 339° North 383 441 39,000  Level Miami Center
04:44 28.0253 -80.5661 341° North 389 448 39,000  Level Miami Center
04:45 28.1306 -80.6119 339° North 389 448 39,000  Level Miami Center
04:46 28.1377 -80.7848 332° Northwest  Level Estimated
04:46 28.2297 -80.6528 340° North 389 448 39,000  Level Miami Center
04:47 28.2431 -80.8503 331° Northwest  Level Estimated
04:49 28.4767 -80.7600 339° North 395 455 39,000  Level Jacksonville Center
04:50 28.5794 -80.8028 340° North 395 455 39,000  Level Jacksonville Center
04:51 28.6825 -80.8456 340° North 395 455 39,000  Level Jacksonville Center
04:52 28.7856 -80.8908 339° North 395 455 39,000  Level Jacksonville Center
04:53 28.8906 -80.9339 340° North 395 455 39,000  Level Jacksonville Center
04:54 28.9933 -80.9792 339° North 395 455 39,000  Level Jacksonville Center
04:55 29.0964 -81.0247 339° North 395 455 39,000  Level Jacksonville Center
04:56 29.1992 -81.0681 340° North 395 455 39,000  Level Jacksonville Center
04:57 29.3042 -81.1114 340° North 395 455 39,000  Level Jacksonville Center
04:58 29.4092 -81.1569 339° North 395 455 39,000  Level Jacksonville Center
04:59 29.4997 -81.2200 329° Northwest 390 449 39,000  Level Jacksonville Center
05:00 29.5967 -81.2853 330° Northwest 390 449 39,000  Level Jacksonville Center
05:01 29.6914 -81.3481 330° Northwest 390 449 39,000  Level Jacksonville Center
05:02 29.7861 -81.4111 330° Northwest 390 449 39,000  Level Jacksonville Center
05:03 29.8828 -81.4744 330° Northwest 395 455 39,000  Level Jacksonville Center
05:04 29.9794 -81.5403 329° Northwest 395 455 39,000  Level Jacksonville Center
05:05 30.0742 -81.6036 330° Northwest 395 455 39,000  Level Jacksonville Center
05:06 30.1689 -81.6672 330° Northwest 395 455 39,000  Level Jacksonville Center
05:07 30.2739 -81.7356 331° Northwest 395 455 39,000  Level Jacksonville Center
05:08 30.3706 -81.8019 329° Northwest 407 468 39,000  Level Jacksonville Center
05:09 30.4692 -81.8683 330° Northwest 407 468 39,000  Level Jacksonville Center
05:10 30.5678 -81.9397 328° Northwest 414 476 39,000 -420 Level Jacksonville Center
05:11 30.6642 -82.0039 330° Northwest 414 476 38,200 -540 Descending Jacksonville Center
05:12 30.7608 -82.0706 329° Northwest 408 470 38,000 -120 Descending Jacksonville Center
05:13 30.8572 -82.1375 329° Northwest 408 470 38,000  Level Jacksonville Center
05:14 30.9558 -82.2069 329° Northwest 408 470 38,000  Level Jacksonville Center
05:15 31.0542 -82.2767 329° Northwest 408 470 38,000  Level Jacksonville Center
05:16 31.1528 -82.3439 330° Northwest 408 470 38,000  Level Jacksonville Center
05:17 31.2533 -82.4089 331° Northwest 413 475 38,000  Level Jacksonville Center
05:19 31.4792 -82.5681 329° Northwest 412 474 38,000  Level Atlanta Center
05:20 31.5822 -82.6397 329° Northwest 412 474 38,000  Level Atlanta Center
05:21 31.6831 -82.7089 330° Northwest 417 480 38,000  Level Atlanta Center
05:22 31.7797 -82.7783 329° Northwest 417 480 38,000  Level Atlanta Center
05:23 31.8828 -82.8525 329° Northwest 417 480 38,000  Level Atlanta Center
05:24 31.9858 -82.9222 330° Northwest 417 480 38,000  Level Atlanta Center
05:25 32.0886 -82.9969 328° Northwest 417 480 38,000  Level Atlanta Center
05:26 32.1894 -83.0694 329° Northwest 422 486 38,000 -660 Level Atlanta Center
05:27 32.2944 -83.1419 330° Northwest 427 491 36,700 -2,460 Descending Atlanta Center
05:28 32.3950 -83.2147 329° Northwest 432 497 33,100 -3,360 Descending Atlanta Center
05:29 32.5000 -83.2900 329° Northwest 432 497 30,000 -2,820 Descending Atlanta Center
05:30 32.5983 -83.3608 329° Northwest 432 497 27,500 -2,520 Descending Atlanta Center
05:31 32.6928 -83.4267 330° Northwest 415 478 25,000 -2,580 Descending Atlanta Center
05:32 32.7806 -83.4953 327° Northwest 399 459 22,400 -2,640 Descending Atlanta Center
05:33 32.8708 -83.5567 330° Northwest 390 449 19,800 -2,340 Descending Atlanta Center
05:34 32.9564 -83.6206 328° Northwest 374 430 17,800 -2,220 Descending Atlanta Center
05:35 33.0361 -83.6769 329° Northwest 357 411 15,400 -2,280 Descending Atlanta Center
05:36 33.1114 -83.7339 328° Northwest 347 399 13,300 -2,340 Descending Atlanta Center
05:37 33.1500 -83.7833 313° West 332 382 12,000 -960 Descending Atlanta TRACON
05:38 33.2333 -83.8333 333° Northwest 329 379 11,900 -420 Descending Atlanta TRACON
05:39 33.3000 -83.9000 320° Northwest 309 356 11,200 -840 Descending Atlanta TRACON
05:39 33.3225 -83.9244 318° Northwest 309 356 10,700 -1,200 Descending Atlanta Center
05:40 33.3850 -83.9742 326° Northwest 281 323 9,400 -1,440 Descending Atlanta Center
05:41 33.4436 -84.0264 323° Northwest 267 307 7,900 -1,560 Descending Atlanta Center
05:42 33.5042 -84.0811 323° Northwest 262 302 6,300 -1,440 Descending Atlanta Center
05:43 33.5625 -84.1311 324° Northwest 262 302 5,100 -1,440 Descending Atlanta Center
05:44 33.5833 -84.1500 323° Northwest 244 281 4,200 -1,380 Descending Atlanta TRACON
05:45 33.6333 -84.2000 320° Northwest 238 274 3,200 -660 Descending Atlanta TRACON
05:46 33.6500 -84.2667 287° West 188 216 3,000 -240 Descending Atlanta TRACON